Time;durP1;ratioP1;P1;durP2;ratioP2;P2;SDS_P1;SDS_P2;PMS_P1;PMS_P2;Temp;Humidity;BMP_temperature;BMP_pressure;BME280_temperature;BME280_humidity;BME280_pressure;Samples;Min_cycle;Max_cycle;Signal;HPM_P1;HPM_P2
2024/03/27 00:00:29;;;;;;;3.90;1.13;;;13.20;99.90;;;;;;7280535;19;20189;-77
2024/03/27 00:02:55;;;;;;;5.27;1.10;;;13.20;99.90;;;;;;7305198;19;20192;-77
2024/03/27 00:05:21;;;;;;;4.50;1.20;;;13.20;99.90;;;;;;7282957;19;20184;-77
2024/03/27 00:07:46;;;;;;;2.33;1.10;;;13.20;99.90;;;;;;7282897;19;20181;-77
2024/03/27 00:10:13;;;;;;;3.60;1.10;;;13.10;99.90;;;;;;7281976;19;20189;-77
2024/03/27 00:12:39;;;;;;;3.23;1.30;;;13.00;99.90;;;;;;7282163;19;20195;-78
2024/03/27 00:15:05;;;;;;;2.30;1.23;;;12.90;99.90;;;;;;7283862;19;20498;-78
2024/03/27 00:17:31;;;;;;;3.13;1.20;;;12.80;99.90;;;;;;7297509;19;20188;-78
2024/03/27 00:19:57;;;;;;;3.40;1.30;;;12.80;99.90;;;;;;7303056;19;20221;-78
2024/03/27 00:22:23;;;;;;;3.83;1.20;;;12.70;99.90;;;;;;7325248;19;20181;-79
2024/03/27 00:24:49;;;;;;;4.23;1.53;;;12.80;99.90;;;;;;7293668;19;20187;-78
2024/03/27 00:27:14;;;;;;;3.10;1.10;;;12.70;99.90;;;;;;7286910;19;20188;-79
2024/03/27 00:29:40;;;;;;;4.93;1.20;;;12.60;99.90;;;;;;7286223;19;20194;-78
2024/03/27 00:32:06;;;;;;;3.10;1.10;;;12.60;99.90;;;;;;7288074;19;20207;-79
2024/03/27 00:34:32;;;;;;;3.73;1.30;;;12.60;99.90;;;;;;7289838;19;20194;-78
2024/03/27 00:36:59;;;;;;;5.30;1.23;;;12.70;99.90;;;;;;7288967;19;20198;-78
2024/03/27 00:39:25;;;;;;;3.57;1.30;;;12.70;99.90;;;;;;7307962;19;20177;-78
2024/03/27 00:41:51;;;;;;;3.70;1.40;;;12.70;99.90;;;;;;7290201;19;20213;-78
2024/03/27 00:44:17;;;;;;;4.20;1.20;;;12.70;99.90;;;;;;7289072;19;20180;-78
2024/03/27 00:46:43;;;;;;;5.00;1.60;;;12.60;99.90;;;;;;7286554;19;20212;-78
2024/03/27 00:49:08;;;;;;;4.17;1.43;;;12.60;99.90;;;;;;7287322;19;20191;-78
2024/03/27 00:51:34;;;;;;;3.87;1.60;;;12.60;99.90;;;;;;7286022;19;20562;-77
2024/03/27 00:54:00;;;;;;;3.97;1.70;;;12.50;99.90;;;;;;7290373;19;20184;-78
2024/03/27 00:56:27;;;;;;;5.33;1.83;;;12.40;99.90;;;;;;7311316;19;20191;-78
2024/03/27 00:58:53;;;;;;;6.77;2.10;;;12.40;99.90;;;;;;7285845;19;20191;-78
2024/03/27 01:01:19;;;;;;;5.23;2.07;;;12.30;99.90;;;;;;7288018;19;20621;-78
2024/03/27 01:03:44;;;;;;;7.10;2.27;;;12.30;99.90;;;;;;7287817;19;20208;-78
2024/03/27 01:06:10;;;;;;;5.17;2.50;;;12.30;99.90;;;;;;7284188;19;20245;-78
2024/03/27 01:08:36;;;;;;;7.83;2.80;;;12.30;99.90;;;;;;7287417;19;20199;-78
2024/03/27 01:11:02;;;;;;;7.23;3.10;;;12.30;99.90;;;;;;7287601;19;20198;-78
2024/03/27 01:13:29;;;;;;;6.00;3.00;;;12.30;99.90;;;;;;7287033;19;20554;-78
2024/03/27 01:15:55;;;;;;;5.73;3.43;;;12.30;99.90;;;;;;7307938;19;20194;-77
2024/03/27 01:18:21;;;;;;;7.13;4.00;;;12.30;99.90;;;;;;7285984;19;20194;-77
2024/03/27 01:20:47;;;;;;;6.70;4.20;;;12.20;99.90;;;;;;7286846;19;20318;-77
2024/03/27 01:23:13;;;;;;;6.93;4.27;;;12.20;99.90;;;;;;7285865;19;20289;-78
2024/03/27 01:25:39;;;;;;;8.40;4.67;;;12.30;99.90;;;;;;7283299;19;20248;-78
2024/03/27 01:28:06;;;;;;;8.37;4.90;;;12.30;99.90;;;;;;7286021;19;20184;-78
2024/03/27 01:30:32;;;;;;;8.30;5.27;;;12.30;99.90;;;;;;7285493;19;20903;-78
2024/03/27 01:32:58;;;;;;;7.20;4.50;;;12.20;99.90;;;;;;7293627;19;20213;-77
2024/03/27 01:35:25;;;;;;;5.67;3.50;;;12.20;99.90;;;;;;7307999;19;20191;-78
2024/03/27 01:37:50;;;;;;;6.77;3.33;;;12.00;99.90;;;;;;7285079;19;20179;-78
2024/03/27 01:40:16;;;;;;;8.67;3.40;;;11.90;99.90;;;;;;7286587;19;20212;-78
2024/03/27 01:42:42;;;;;;;5.53;3.10;;;11.80;99.90;;;;;;7287241;19;20277;-78
2024/03/27 01:45:13;;;;;;;7.73;3.40;;;11.60;99.90;;;;;;7285541;19;20185;-78
2024/03/27 01:47:42;;;;;;;6.60;3.47;;;11.60;99.90;;;;;;7286340;19;20334;-78
2024/03/27 01:50:11;;;;;;;8.20;4.97;;;11.50;99.90;;;;;;7288237;19;20197;-77
2024/03/27 01:52:39;;;;;;;9.93;5.63;;;11.50;99.90;;;;;;7283261;19;20605;-77
2024/03/27 01:55:05;;;;;;;8.93;4.93;;;11.40;99.90;;;;;;7287057;19;20194;-77
2024/03/27 01:57:34;;;;;;;8.60;4.70;;;11.20;99.90;;;;;;7286114;19;20671;-77
2024/03/27 02:00:00;;;;;;;7.67;4.00;;;11.20;99.90;;;;;;7285830;19;20204;-78
2024/03/27 02:02:25;;;;;;;5.60;3.30;;;11.30;99.90;;;;;;7304776;19;20226;-77
2024/03/27 02:04:51;;;;;;;3.97;2.50;;;11.30;99.90;;;;;;7284952;19;20189;-77
2024/03/27 02:07:17;;;;;;;4.83;2.03;;;11.40;99.90;;;;;;7285226;19;20187;-77
2024/03/27 02:09:43;;;;;;;3.23;2.30;;;11.30;99.90;;;;;;7285051;19;20205;-78
2024/03/27 02:12:08;;;;;;;3.17;1.90;;;11.30;99.90;;;;;;7283388;19;20210;-78
2024/03/27 02:14:34;;;;;;;2.27;1.60;;;11.20;99.90;;;;;;7285378;19;20183;-78
2024/03/27 02:17:00;;;;;;;5.00;1.93;;;11.10;99.90;;;;;;7283923;19;20179;-78
2024/03/27 02:19:26;;;;;;;3.20;1.70;;;10.90;99.90;;;;;;7306156;19;20539;-78
2024/03/27 02:21:52;;;;;;;4.23;1.63;;;11.00;99.90;;;;;;7284900;19;20186;-77
2024/03/27 02:24:56;;;;;;;4.10;2.13;;;11.10;99.90;;;;;;7285663;19;20179;-77
2024/03/27 02:27:22;;;;;;;3.37;1.93;;;11.10;99.90;;;;;;7182713;19;2004362;-78
2024/03/27 02:29:47;;;;;;;3.00;2.00;;;11.10;99.90;;;;;;7283699;19;20206;-78
2024/03/27 02:32:13;;;;;;;3.37;2.00;;;11.00;99.90;;;;;;7283474;19;20217;-78
2024/03/27 02:34:39;;;;;;;4.03;2.40;;;11.00;99.90;;;;;;7286336;19;20188;-76
2024/03/27 02:37:04;;;;;;;5.83;2.30;;;10.80;99.90;;;;;;7284235;19;20193;-77
2024/03/27 02:39:30;;;;;;;4.90;2.50;;;10.90;99.90;;;;;;7282071;19;20278;-77
2024/03/27 02:41:56;;;;;;;4.40;2.47;;;10.90;99.90;;;;;;7305994;19;20221;-77
2024/03/27 02:44:22;;;;;;;4.97;2.73;;;10.90;99.90;;;;;;7284068;19;20191;-77
2024/03/27 02:46:47;;;;;;;5.27;2.93;;;10.90;99.90;;;;;;7285049;19;20685;-78
2024/03/27 02:49:13;;;;;;;6.30;3.07;;;10.90;99.90;;;;;;7282738;19;20185;-77
2024/03/27 02:51:39;;;;;;;6.37;3.33;;;10.70;99.90;;;;;;7284187;19;20188;-78
2024/03/27 02:54:04;;;;;;;6.50;3.10;;;10.70;99.90;;;;;;7284528;19;20183;-77
2024/03/27 02:56:30;;;;;;;7.33;3.43;;;10.60;99.90;;;;;;7284183;19;20186;-77
2024/03/27 02:58:56;;;;;;;9.20;3.53;;;10.50;99.90;;;;;;7302712;19;20686;-78
2024/03/27 03:01:22;;;;;;;7.33;3.50;;;10.60;99.90;;;;;;7285551;19;20208;-78
2024/03/27 03:03:48;;;;;;;8.30;3.40;;;10.60;99.90;;;;;;7284478;19;21080;-78
2024/03/27 03:06:13;;;;;;;6.97;3.70;;;10.60;99.90;;;;;;7283960;19;20181;-77
2024/03/27 03:08:39;;;;;;;6.77;3.60;;;10.60;99.90;;;;;;7283052;19;20352;-78
2024/03/27 03:11:05;;;;;;;7.07;3.67;;;10.60;99.90;;;;;;7284394;19;20192;-77
2024/03/27 03:13:31;;;;;;;7.63;3.43;;;10.60;99.90;;;;;;7283448;19;20253;-77
2024/03/27 03:15:56;;;;;;;6.33;3.20;;;10.60;99.90;;;;;;7304974;19;20195;-77
2024/03/27 03:18:22;;;;;;;6.90;3.50;;;10.70;99.90;;;;;;7282332;19;20185;-77
2024/03/27 03:20:48;;;;;;;7.00;3.37;;;10.60;99.90;;;;;;7283102;19;20239;-77
2024/03/27 03:23:14;;;;;;;6.67;3.40;;;10.60;99.90;;;;;;7282332;19;20649;-77
2024/03/27 03:25:40;;;;;;;6.13;3.50;;;10.70;99.90;;;;;;7280897;19;20185;-77
2024/03/27 03:28:05;;;;;;;6.13;3.60;;;10.80;99.90;;;;;;7283538;19;20221;-80
2024/03/27 03:30:31;;;;;;;7.13;3.57;;;10.80;99.90;;;;;;7282416;19;20294;-76
2024/03/27 03:32:57;;;;;;;9.13;3.97;;;10.70;99.90;;;;;;7299179;19;20253;-77
2024/03/27 03:35:25;;;;;;;6.13;3.60;;;10.70;99.90;;;;;;7295646;19;20962;-77
2024/03/27 03:37:51;;;;;;;7.83;4.10;;;10.80;99.90;;;;;;7282449;19;20220;-77
2024/03/27 03:40:16;;;;;;;7.03;4.03;;;10.70;99.90;;;;;;7284459;19;20194;-77
2024/03/27 03:42:42;;;;;;;7.37;3.63;;;10.70;99.90;;;;;;7281844;19;20201;-77
2024/03/27 03:45:09;;;;;;;6.17;3.77;;;10.80;99.90;;;;;;7281746;19;20774;-77
2024/03/27 03:47:34;;;;;;;8.03;3.80;;;10.90;99.90;;;;;;7284078;19;20259;-77
2024/03/27 03:50:00;;;;;;;8.00;4.30;;;10.70;99.90;;;;;;7283744;19;20252;-77
2024/03/27 03:52:26;;;;;;;8.33;4.00;;;10.80;99.90;;;;;;7303929;19;20197;-77
2024/03/27 03:54:52;;;;;;;6.80;4.17;;;10.80;99.90;;;;;;7280247;19;20186;-77
2024/03/27 03:57:17;;;;;;;6.03;3.43;;;11.00;99.90;;;;;;7282440;19;20187;-77
2024/03/27 03:59:43;;;;;;;6.13;3.87;;;10.90;99.90;;;;;;7282689;19;20663;-77
2024/03/27 04:02:09;;;;;;;6.70;3.97;;;11.00;99.90;;;;;;7280717;19;20231;-77
2024/03/27 04:04:35;;;;;;;7.07;3.87;;;11.00;99.90;;;;;;7280426;19;20226;-78
2024/03/27 04:07:01;;;;;;;6.33;3.77;;;10.90;99.90;;;;;;7283127;19;20281;-77
2024/03/27 04:09:28;;;;;;;6.53;3.90;;;11.00;99.90;;;;;;7302491;19;20196;-77
2024/03/27 04:11:53;;;;;;;7.37;4.17;;;11.10;99.90;;;;;;7298609;19;20205;-78
2024/03/27 04:14:19;;;;;;;6.33;3.70;;;11.10;99.90;;;;;;7280941;19;20657;-78
2024/03/27 04:16:45;;;;;;;8.60;3.70;;;11.10;99.90;;;;;;7280939;19;20190;-77
2024/03/27 04:19:10;;;;;;;5.73;3.80;;;11.20;99.90;;;;;;7281832;19;20573;-78
2024/03/27 04:21:36;;;;;;;6.47;3.50;;;11.20;99.90;;;;;;7279739;19;20214;-78
2024/03/27 04:24:02;;;;;;;9.27;3.70;;;11.10;99.90;;;;;;7278891;19;20181;-77
2024/03/27 04:26:28;;;;;;;6.00;3.70;;;11.00;99.90;;;;;;7292307;19;20189;-77
2024/03/27 04:28:53;;;;;;;6.07;3.50;;;11.00;99.90;;;;;;7300018;19;20555;-78
2024/03/27 04:31:19;;;;;;;6.37;3.70;;;11.00;99.90;;;;;;7277588;19;20272;-77
2024/03/27 04:33:45;;;;;;;7.83;3.80;;;10.90;99.90;;;;;;7283158;19;20201;-77
2024/03/27 04:36:11;;;;;;;5.23;3.23;;;10.70;99.90;;;;;;7281436;19;20189;-78
2024/03/27 04:38:36;;;;;;;6.20;3.43;;;10.80;99.90;;;;;;7280655;19;20916;-78
2024/03/27 04:41:09;;;;;;;7.27;3.57;;;10.70;99.90;;;;;;7280053;19;20291;-77
2024/03/27 04:43:37;;;;;;;7.47;3.20;;;10.70;99.90;;;;;;7281550;19;20185;-77
2024/03/27 04:46:04;;;;;;;4.20;2.90;;;10.70;99.90;;;;;;7281588;19;20217;-78
2024/03/27 04:48:30;;;;;;;9.20;3.60;;;10.50;99.90;;;;;;7280998;19;20206;-78
2024/03/27 04:50:56;;;;;;;4.37;2.90;;;10.50;99.90;;;;;;7300197;19;20186;-78
2024/03/27 04:53:21;;;;;;;4.93;2.70;;;10.50;99.90;;;;;;7281560;19;20197;-78
2024/03/27 04:55:54;;;;;;;5.53;2.87;;;10.40;99.90;;;;;;7282550;19;20952;-78
2024/03/27 04:58:20;;;;;;;4.90;3.03;;;10.30;99.90;;;;;;7278181;19;20181;-78
2024/03/27 05:00:46;;;;;;;5.27;3.00;;;10.40;99.90;;;;;;7280280;19;20648;-78
2024/03/27 05:03:12;;;;;;;4.90;3.10;;;10.40;99.90;;;;;;7280836;19;20189;-78
2024/03/27 05:05:38;;;;;;;6.07;2.70;;;10.30;99.90;;;;;;7283905;19;20190;-79
2024/03/27 05:08:04;;;;;;;4.00;2.60;;;10.50;99.90;;;;;;7279571;19;20200;-78
2024/03/27 05:10:30;;;;;;;5.53;2.50;;;10.50;99.90;;;;;;7282281;19;20189;-78
2024/03/27 05:12:56;;;;;;;4.53;2.50;;;10.50;99.90;;;;;;7310392;19;20260;-78
2024/03/27 05:15:21;;;;;;;5.93;2.53;;;10.60;99.90;;;;;;7287576;19;20563;-78
2024/03/27 05:17:47;;;;;;;4.37;2.40;;;10.60;99.90;;;;;;7284486;19;20202;-78
2024/03/27 05:20:17;;;;;;;6.93;2.50;;;10.50;99.90;;;;;;7287370;19;20252;-78
2024/03/27 05:22:43;;;;;;;5.30;2.30;;;10.40;99.90;;;;;;7287406;19;20196;-78
2024/03/27 05:25:09;;;;;;;4.23;2.40;;;10.30;99.90;;;;;;7286181;19;20686;-77
2024/03/27 05:27:35;;;;;;;6.33;2.40;;;10.30;99.90;;;;;;7285648;19;20313;-78
2024/03/27 05:30:00;;;;;;;3.40;2.10;;;10.20;99.90;;;;;;7284401;19;20248;-78
2024/03/27 05:32:26;;;;;;;6.73;2.70;;;10.20;99.90;;;;;;7308534;19;20664;-78
2024/03/27 05:34:52;;;;;;;4.33;2.20;;;10.20;99.90;;;;;;7286222;19;20200;-78
2024/03/27 05:37:18;;;;;;;4.53;2.30;;;10.20;99.90;;;;;;7284396;19;20253;-78
2024/03/27 05:39:44;;;;;;;4.53;2.50;;;10.20;99.90;;;;;;7284221;19;20192;-77
2024/03/27 05:42:10;;;;;;;7.30;2.43;;;10.20;99.90;;;;;;7284871;19;20189;-78
2024/03/27 05:44:35;;;;;;;5.17;2.20;;;10.20;99.90;;;;;;7286159;19;20196;-78
2024/03/27 05:47:01;;;;;;;15.13;2.60;;;10.20;99.90;;;;;;7286239;19;20195;-77
2024/03/27 05:49:29;;;;;;;7.13;2.20;;;10.20;99.90;;;;;;7306393;19;20192;-77
2024/03/27 05:51:55;;;;;;;5.37;2.37;;;10.10;99.90;;;;;;7286162;19;20278;-77
2024/03/27 05:54:20;;;;;;;6.43;2.60;;;10.20;99.90;;;;;;7284818;19;20237;-76
2024/03/27 05:56:46;;;;;;;5.10;2.37;;;10.30;99.90;;;;;;7283345;19;20225;-77
2024/03/27 05:59:13;;;;;;;5.97;2.30;;;10.40;99.90;;;;;;7282909;19;20201;-78
2024/03/27 06:01:38;;;;;;;3.77;2.20;;;10.40;99.90;;;;;;7283727;19;20656;-78
2024/03/27 06:04:04;;;;;;;7.03;2.40;;;10.30;99.90;;;;;;7283736;19;20226;-80
2024/03/27 06:06:30;;;;;;;5.63;2.50;;;10.20;99.90;;;;;;7284514;19;20189;-81
2024/03/27 06:08:57;;;;;;;6.57;2.47;;;10.20;99.90;;;;;;7308359;19;20193;-79
2024/03/27 06:11:24;;;;;;;7.83;2.93;;;10.00;99.90;;;;;;7286770;19;20298;-79
2024/03/27 06:13:49;;;;;;;5.83;2.73;;;10.00;99.90;;;;;;7283292;19;20907;-82
2024/03/27 06:16:15;;;;;;;9.00;3.60;;;10.00;99.90;;;;;;7285184;19;20196;-79
2024/03/27 06:18:44;;;;;;;7.73;3.83;;;10.00;99.90;;;;;;7274565;19;20199;-81
2024/03/27 06:21:10;;;;;;;9.57;4.00;;;10.10;99.90;;;;;;7281559;19;20546;-77
2024/03/27 06:23:35;;;;;;;9.57;4.80;;;10.00;99.90;;;;;;7282309;19;20185;-79
2024/03/27 06:26:02;;;;;;;8.23;4.30;;;9.90;99.90;;;;;;7286128;19;20213;-77
2024/03/27 06:28:28;;;;;;;9.50;4.57;;;9.70;99.90;;;;;;7300489;19;20226;-78
2024/03/27 06:30:57;;;;;;;9.53;4.40;;;9.70;99.90;;;;;;7298028;19;20212;-78
2024/03/27 06:33:24;;;;;;;8.80;3.97;;;9.60;99.90;;;;;;7283135;19;20211;-77
2024/03/27 06:35:51;;;;;;;7.97;3.67;;;9.60;99.90;;;;;;7281874;19;20696;-77
2024/03/27 06:38:17;;;;;;;6.90;3.60;;;9.70;99.90;;;;;;7289324;19;20660;-79
2024/03/27 06:40:43;;;;;;;5.63;3.43;;;9.60;99.90;;;;;;7291548;19;20189;-79
2024/03/27 06:43:09;;;;;;;6.20;3.47;;;9.50;99.90;;;;;;7293935;19;20226;-79
2024/03/27 06:45:38;;;;;;;8.97;3.53;;;9.60;99.90;;;;;;7291420;19;20247;-78
2024/03/27 06:48:04;;;;;;;7.93;3.70;;;9.60;99.90;;;;;;7283668;19;20188;-77
2024/03/27 06:50:30;;;;;;;7.93;3.77;;;9.60;99.90;;;;;;7283539;19;20212;-77
2024/03/27 06:52:56;;;;;;;6.97;4.17;;;9.60;99.90;;;;;;7306430;19;20183;-78
2024/03/27 06:55:22;;;;;;;7.23;3.97;;;9.60;99.90;;;;;;7284608;19;20212;-78
2024/03/27 06:57:47;;;;;;;7.40;3.83;;;9.60;99.90;;;;;;7284081;19;20722;-78
2024/03/27 07:00:14;;;;;;;6.87;3.70;;;9.70;99.90;;;;;;7283772;19;20716;-79
2024/03/27 07:02:41;;;;;;;6.93;3.80;;;9.60;99.90;;;;;;7283659;19;20193;-78
2024/03/27 07:05:07;;;;;;;8.33;4.10;;;9.70;99.90;;;;;;7285533;19;20263;-78
2024/03/27 07:07:34;;;;;;;7.70;4.20;;;9.60;99.90;;;;;;7285804;19;20187;-79
2024/03/27 07:10:00;;;;;;;6.97;4.23;;;9.60;99.90;;;;;;7282522;19;20191;-78
2024/03/27 07:12:25;;;;;;;8.77;4.97;;;9.60;99.90;;;;;;7307792;19;20661;-79
2024/03/27 07:14:51;;;;;;;8.93;4.67;;;9.60;99.90;;;;;;7285395;19;20266;-79
2024/03/27 07:17:17;;;;;;;7.73;4.53;;;9.40;99.90;;;;;;7283194;19;22379;-78
2024/03/27 07:19:49;;;;;;;8.00;4.33;;;9.50;99.90;;;;;;7284292;19;20654;-78
2024/03/27 07:22:16;;;;;;;7.83;4.33;;;9.50;99.90;;;;;;7284531;19;20201;-79
2024/03/27 07:24:42;;;;;;;9.27;4.33;;;9.50;99.90;;;;;;7285171;19;20196;-78
2024/03/27 07:27:08;;;;;;;8.33;4.60;;;9.60;99.90;;;;;;7281865;19;20187;-78
2024/03/27 07:29:35;;;;;;;8.23;4.83;;;9.50;99.90;;;;;;7279934;19;20209;-79
2024/03/27 07:32:01;;;;;;;10.20;4.53;;;9.70;99.90;;;;;;7282409;19;20283;-79
2024/03/27 07:34:27;;;;;;;7.63;4.63;;;9.90;99.90;;;;;;7305001;19;20202;-79
2024/03/27 07:36:53;;;;;;;8.23;4.83;;;9.80;99.90;;;;;;7282344;19;20180;-79
2024/03/27 07:39:19;;;;;;;8.10;4.57;;;10.00;99.90;;;;;;7284384;19;20185;-79
2024/03/27 07:41:45;;;;;;;8.73;4.70;;;10.00;99.90;;;;;;7284871;19;20211;-79
2024/03/27 07:44:11;;;;;;;8.63;4.57;;;10.10;99.90;;;;;;7283870;19;20198;-80
2024/03/27 07:46:37;;;;;;;9.80;4.53;;;10.20;99.90;;;;;;7282503;19;20647;-79
2024/03/27 07:49:03;;;;;;;9.77;4.93;;;10.20;99.90;;;;;;7282920;19;20195;-79
2024/03/27 07:51:29;;;;;;;6.80;4.50;;;10.30;99.90;;;;;;7294793;19;20675;-79
2024/03/27 07:53:54;;;;;;;7.07;4.80;;;10.30;99.90;;;;;;7304777;19;20192;-79
2024/03/27 07:56:20;;;;;;;8.47;5.03;;;10.40;99.90;;;;;;7280405;19;21035;-79
2024/03/27 07:58:46;;;;;;;7.20;4.47;;;10.40;99.90;;;;;;7282987;19;20188;-79
2024/03/27 08:01:12;;;;;;;11.60;5.83;;;10.30;99.90;;;;;;7283071;19;20193;-79
2024/03/27 08:03:38;;;;;;;6.70;4.50;;;10.30;99.90;;;;;;7281721;19;20652;-79
2024/03/27 08:06:04;;;;;;;8.20;4.90;;;10.40;99.90;;;;;;7280714;19;20389;-79
2024/03/27 08:08:30;;;;;;;10.77;4.87;;;10.40;99.90;;;;;;7282348;19;20250;-79
2024/03/27 08:11:00;;;;;;;7.50;4.50;;;10.30;99.90;;;;;;7306222;19;20182;-79
2024/03/27 08:13:26;;;;;;;8.53;4.27;;;10.40;99.90;;;;;;7285186;19;20188;-78
2024/03/27 08:15:52;;;;;;;8.07;4.57;;;10.30;99.90;;;;;;7281410;19;20196;-80
2024/03/27 08:18:18;;;;;;;8.50;4.87;;;10.30;99.90;;;;;;7282547;19;20915;-78
2024/03/27 08:20:54;;;;;;;7.77;5.00;;;10.40;99.90;;;;;;7281893;19;20207;-79
2024/03/27 08:23:20;;;;;;;8.30;4.93;;;10.40;99.90;;;;;;7281590;19;20185;-78
2024/03/27 08:25:46;;;;;;;9.93;4.70;;;10.30;99.90;;;;;;7281381;19;20208;-78
2024/03/27 08:28:12;;;;;;;10.50;5.40;;;10.30;99.90;;;;;;7281218;19;20200;-79
2024/03/27 08:30:44;;;;;;;8.53;5.37;;;10.00;99.90;;;;;;7281738;19;20193;-78
2024/03/27 08:33:10;;;;;;;8.13;5.63;;;10.20;99.90;;;;;;7280853;19;20273;-79
2024/03/27 08:35:40;;;;;;;8.70;5.43;;;10.50;99.90;;;;;;7281162;19;20185;-78
2024/03/27 08:38:06;;;;;;;10.10;5.77;;;10.40;99.90;;;;;;7280503;19;20199;-78
2024/03/27 08:40:32;;;;;;;9.47;6.40;;;10.40;99.90;;;;;;7281875;19;20204;-78
2024/03/27 08:42:58;;;;;;;10.90;6.43;;;10.50;99.90;;;;;;7299038;19;20210;-78
2024/03/27 08:45:25;;;;;;;9.77;6.07;;;10.60;99.90;;;;;;7301674;19;20192;-78
2024/03/27 08:47:51;;;;;;;9.50;5.90;;;10.80;99.90;;;;;;7284479;19;20296;-79
2024/03/27 08:50:17;;;;;;;8.30;5.20;;;10.90;99.90;;;;;;7287639;19;20957;-78
2024/03/27 08:52:43;;;;;;;10.17;5.77;;;10.60;99.90;;;;;;7287899;19;20536;-79
2024/03/27 08:55:09;;;;;;;10.33;5.73;;;10.80;99.90;;;;;;7287539;19;20337;-78
2024/03/27 08:57:35;;;;;;;7.67;4.93;;;10.80;99.90;;;;;;7287185;19;20252;-78
2024/03/27 09:00:04;;;;;;;10.67;5.60;;;10.90;99.90;;;;;;7288155;19;20281;-78
2024/03/27 09:02:30;;;;;;;9.47;5.73;;;11.20;99.90;;;;;;7287114;19;20564;-78
2024/03/27 09:04:56;;;;;;;9.87;5.10;;;11.20;99.90;;;;;;7310296;19;20188;-79
2024/03/27 09:07:22;;;;;;;8.80;5.67;;;11.20;99.90;;;;;;7288837;19;20193;-80
2024/03/27 09:09:49;;;;;;;9.87;6.00;;;11.20;99.90;;;;;;7287059;19;20305;-79
2024/03/27 09:12:14;;;;;;;11.30;5.63;;;11.30;99.90;;;;;;7286522;19;20182;-78
2024/03/27 09:14:41;;;;;;;11.03;5.47;;;11.70;99.90;;;;;;7286836;19;20198;-79
2024/03/27 09:17:06;;;;;;;7.40;4.87;;;11.90;99.90;;;;;;7287646;19;20217;-79
2024/03/27 09:19:32;;;;;;;8.83;4.50;;;11.70;99.90;;;;;;7287154;19;20635;-79
2024/03/27 09:21:58;;;;;;;8.17;4.90;;;11.60;99.90;;;;;;7308763;19;20212;-78
2024/03/27 09:24:24;;;;;;;9.83;4.70;;;11.50;99.90;;;;;;7289756;19;20276;-78
2024/03/27 09:26:50;;;;;;;6.73;4.20;;;11.40;99.90;;;;;;7288754;19;20200;-78
2024/03/27 09:29:16;;;;;;;7.33;4.60;;;11.40;99.90;;;;;;7284295;19;20192;-79
2024/03/27 09:31:42;;;;;;;9.37;4.30;;;11.70;99.90;;;;;;7288228;19;20238;-79
2024/03/27 09:34:08;;;;;;;9.07;4.07;;;12.00;99.90;;;;;;7289061;19;20189;-79
2024/03/27 09:36:34;;;;;;;7.67;4.20;;;11.90;99.90;;;;;;7289137;19;20192;-79
2024/03/27 09:39:00;;;;;;;8.17;4.37;;;12.00;99.90;;;;;;7298084;19;20217;-79
2024/03/27 09:41:26;;;;;;;6.20;3.73;;;12.20;99.90;;;;;;7312010;19;20647;-79
2024/03/27 09:43:55;;;;;;;7.90;3.77;;;12.40;99.90;;;;;;7287012;19;20198;-79
2024/03/27 09:46:21;;;;;;;8.53;4.07;;;12.70;99.90;;;;;;7286234;19;20256;-79
2024/03/27 09:48:47;;;;;;;6.33;4.03;;;12.80;99.90;;;;;;7283951;19;20201;-79
2024/03/27 09:51:16;;;;;;;9.20;3.73;;;12.70;99.90;;;;;;7287150;19;20541;-79
2024/03/27 09:53:43;;;;;;;7.07;3.80;;;12.90;99.90;;;;;;7287730;19;20667;-79
2024/03/27 09:56:12;;;;;;;9.80;4.40;;;13.00;99.90;;;;;;7285198;19;20187;-79
2024/03/27 09:58:38;;;;;;;9.03;4.30;;;12.70;99.90;;;;;;7283413;19;20215;-79
2024/03/27 10:01:06;;;;;;;7.17;4.20;;;12.30;99.90;;;;;;7285384;19;20187;-78
2024/03/27 10:03:38;;;;;;;7.23;4.00;;;12.20;99.90;;;;;;7286267;19;20194;-79
2024/03/27 10:06:04;;;;;;;8.20;4.17;;;11.90;99.90;;;;;;7285204;19;20196;-79
2024/03/27 10:08:30;;;;;;;6.77;4.30;;;12.00;99.90;;;;;;7287318;19;20660;-78
2024/03/27 10:10:56;;;;;;;7.13;4.10;;;11.70;99.90;;;;;;7307196;19;20213;-78
2024/03/27 10:13:23;;;;;;;9.70;4.10;;;11.70;99.90;;;;;;7286516;19;20234;-78
2024/03/27 10:15:51;;;;;;;9.33;4.07;;;11.50;99.90;;;;;;7285345;19;20216;-78
2024/03/27 10:18:18;;;;;;;10.20;4.00;;;11.40;99.90;;;;;;7285534;19;20310;-78
2024/03/27 10:20:44;;;;;;;6.40;3.50;;;11.60;99.90;;;;;;7286394;19;20590;-78
2024/03/27 10:23:10;;;;;;;8.30;3.77;;;11.60;99.90;;;;;;7286089;19;20200;-78
2024/03/27 10:25:38;;;;;;;8.63;3.90;;;11.90;99.90;;;;;;7284171;19;20226;-78
2024/03/27 10:28:10;;;;;;;7.27;3.43;;;12.00;99.90;;;;;;7283558;19;20536;-78
2024/03/27 10:30:39;;;;;;;6.53;3.80;;;12.10;99.90;;;;;;7285932;19;20190;-78
2024/03/27 10:33:05;;;;;;;6.70;3.73;;;12.50;99.90;;;;;;7285588;19;20234;-77
2024/03/27 10:35:35;;;;;;;7.47;3.80;;;12.80;99.90;;;;;;7284319;19;20187;-78
2024/03/27 10:38:01;;;;;;;7.90;3.63;;;13.20;99.90;;;;;;7285192;19;20712;-78
2024/03/27 10:40:29;;;;;;;7.13;3.10;;;13.40;99.90;;;;;;7305730;19;20252;-78
2024/03/27 10:43:18;;;;;;;7.50;3.40;;;13.70;99.90;;;;;;7286458;19;20572;-78
2024/03/27 10:45:47;;;;;;;5.60;3.17;;;13.60;99.90;;;;;;7181999;19;2004562;-78
2024/03/27 10:48:13;;;;;;;6.70;3.23;;;13.80;99.90;;;;;;7285731;19;20192;-78
2024/03/27 10:50:41;;;;;;;5.47;3.30;;;14.00;99.90;;;;;;7284892;19;20209;-78
2024/03/27 10:53:08;;;;;;;4.00;3.00;;;14.20;99.90;;;;;;7283077;19;20559;-79
2024/03/27 10:55:37;;;;;;;7.33;4.00;;;13.70;99.90;;;;;;7283994;19;20662;-79
2024/03/27 10:58:03;;;;;;;6.47;2.97;;;13.40;99.90;;;;;;7282478;19;20876;-79
2024/03/27 11:00:31;;;;;;;6.77;3.30;;;13.50;99.90;;;;;;7290154;19;20187;-79
2024/03/27 11:02:57;;;;;;;6.30;3.57;;;13.30;99.90;;;;;;7303546;19;20257;-79
2024/03/27 11:05:27;;;;;;;6.90;3.00;;;13.30;99.90;;;;;;7284900;19;20202;-79
2024/03/27 11:07:58;;;;;;;7.53;3.27;;;13.40;99.90;;;;;;7283907;19;20288;-79
2024/03/27 11:10:25;;;;;;;7.33;3.27;;;13.80;99.90;;;;;;7283677;19;20181;-79
2024/03/27 11:12:52;;;;;;;6.13;2.90;;;14.20;99.90;;;;;;7284605;19;20202;-77
2024/03/27 11:15:18;;;;;;;6.23;2.27;;;14.30;99.90;;;;;;7282507;19;20199;-77
2024/03/27 11:18:13;;;;;;;4.83;2.40;;;14.20;99.90;;;;;;7282303;19;20189;-79
2024/03/27 11:20:55;;;;;;;5.77;2.50;;;13.60;99.90;;;;;;7180814;19;2004989;-78
2024/03/27 11:23:34;;;;;;;4.23;2.30;;;13.50;99.90;;;;;;7283258;19;20209;-78
2024/03/27 11:26:03;;;;;;;5.77;2.20;;;14.10;99.90;;;;;;7272050;19;20200;-78
2024/03/27 11:28:28;;;;;;;7.83;2.57;;;14.40;99.90;;;;;;7304556;19;20185;-78
2024/03/27 11:30:58;;;;;;;6.63;2.30;;;14.40;99.90;;;;;;7291428;19;20925;-77
2024/03/27 11:33:24;;;;;;;6.47;2.80;;;14.40;99.90;;;;;;7280416;19;20532;-77
2024/03/27 11:35:51;;;;;;;5.37;2.40;;;14.00;99.90;;;;;;7281585;19;20709;-77
2024/03/27 11:38:20;;;;;;;4.00;2.00;;;14.20;99.90;;;;;;7280163;19;20533;-76
2024/03/27 11:40:50;;;;;;;3.83;1.87;;;14.50;99.90;;;;;;7279048;19;20197;-78
2024/03/27 11:43:17;;;;;;;5.17;1.90;;;15.10;99.90;;;;;;7280385;19;20204;-77
2024/03/27 11:45:43;;;;;;;5.40;2.07;;;15.40;99.90;;;;;;7281552;19;20193;-77
2024/03/27 11:48:08;;;;;;;4.83;2.30;;;14.80;99.90;;;;;;7278563;19;20853;-77
2024/03/27 11:50:35;;;;;;;3.57;2.43;;;14.70;99.90;;;;;;7278028;19;20558;-77
2024/03/27 11:53:00;;;;;;;6.50;2.60;;;14.80;99.90;;;;;;7282619;19;20187;-76
2024/03/27 11:55:26;;;;;;;4.00;2.07;;;14.20;99.90;;;;;;7303552;19;20552;-76
2024/03/27 11:57:52;;;;;;;4.20;2.20;;;14.00;99.90;;;;;;7280397;19;21664;-77
2024/03/27 12:00:18;;;;;;;4.77;2.50;;;14.30;99.90;;;;;;7278187;19;20199;-76
2024/03/27 12:02:44;;;;;;;6.87;2.17;;;14.50;99.90;;;;;;7280736;19;20197;-77
2024/03/27 12:05:10;;;;;;;5.77;2.50;;;14.20;99.90;;;;;;7280692;19;20198;-77
2024/03/27 12:07:36;;;;;;;6.53;2.77;;;14.00;99.90;;;;;;7279020;19;20765;-78
2024/03/27 12:10:09;;;;;;;4.33;2.10;;;13.90;99.90;;;;;;7276981;19;20197;-78
2024/03/27 12:12:36;;;;;;;5.63;2.30;;;13.90;99.90;;;;;;7282514;19;21039;-79
2024/03/27 12:15:03;;;;;;;6.50;1.90;;;14.30;99.90;;;;;;7279797;19;20189;-78
2024/03/27 12:17:36;;;;;;;5.23;2.30;;;14.40;99.90;;;;;;7301780;19;20268;-78
2024/03/27 12:20:04;;;;;;;8.87;2.80;;;14.40;99.90;;;;;;7260756;19;20196;-78
2024/03/27 12:22:30;;;;;;;6.50;2.47;;;14.10;99.90;;;;;;7295754;19;20724;-78
2024/03/27 12:24:56;;;;;;;5.27;2.00;;;14.20;99.90;;;;;;7309961;19;20568;-79
2024/03/27 12:27:32;;;;;;;6.40;2.20;;;14.40;99.90;;;;;;7288471;19;20571;-79
2024/03/27 12:29:59;;;;;;;5.87;2.00;;;14.60;99.90;;;;;;7288627;19;20188;-79
2024/03/27 12:32:27;;;;;;;10.00;2.50;;;14.70;99.90;;;;;;7304308;19;20200;-79
2024/03/27 12:34:53;;;;;;;3.87;2.00;;;14.70;99.90;;;;;;7300266;19;20332;-80
2024/03/27 12:37:19;;;;;;;4.80;2.13;;;14.70;99.90;;;;;;7305846;19;20202;-78
2024/03/27 12:39:45;;;;;;;6.27;1.93;;;14.90;99.90;;;;;;7289473;19;20191;-79
2024/03/27 12:42:11;;;;;;;4.00;1.40;;;14.80;99.90;;;;;;7289841;19;20189;-79
2024/03/27 12:44:37;;;;;;;3.53;1.47;;;14.80;99.90;;;;;;7285977;19;20203;-78